createdAt,value
2018-12-22T00:00:49.152Z,7.47
2018-12-22T00:03:23.946Z,7.70
2018-12-22T00:05:58.783Z,6.97
2018-12-22T00:08:33.013Z,7.53
2018-12-22T00:11:09.038Z,7.33
2018-12-22T00:13:41.898Z,7.23
2018-12-22T00:16:14.873Z,8.70
2018-12-22T00:18:47.862Z,6.83
2018-12-22T00:21:24.292Z,7.47
2018-12-22T00:23:57.296Z,7.20
2018-12-22T00:26:30.661Z,7.77
2018-12-22T00:29:03.692Z,7.37
2018-12-22T00:31:36.596Z,6.93
2018-12-22T00:34:11.459Z,7.17
2018-12-22T00:36:47.366Z,8.37
2018-12-22T00:39:21.697Z,7.13
2018-12-22T00:41:56.781Z,8.03
2018-12-22T00:44:29.677Z,7.90
2018-12-22T00:47:02.732Z,6.50
2018-12-22T00:49:35.928Z,7.07
2018-12-22T00:52:08.911Z,6.80
2018-12-22T00:54:41.855Z,7.10
2018-12-22T00:57:15.913Z,7.80
2018-12-22T00:59:48.823Z,8.07
2018-12-22T01:02:21.874Z,8.73
2018-12-22T01:04:55.315Z,7.47
2018-12-22T01:07:31.405Z,7.70
2018-12-22T01:10:07.490Z,7.20
2018-12-22T01:12:42.529Z,8.37
2018-12-22T01:15:16.472Z,7.37
2018-12-22T01:17:51.205Z,7.47
2018-12-22T01:20:27.433Z,7.23
2018-12-22T01:23:01.345Z,10.18
2018-12-22T01:25:35.936Z,9.33
2018-12-22T01:28:09.339Z,7.97
2018-12-22T01:30:42.567Z,9.63
2018-12-22T01:33:15.835Z,8.07
2018-12-22T01:35:49.306Z,8.83
2018-12-22T01:38:22.339Z,8.00
2018-12-22T01:40:55.307Z,8.40
2018-12-22T01:43:29.686Z,8.60
2018-12-22T01:46:02.560Z,8.70
2018-12-22T01:48:35.492Z,9.32
2018-12-22T01:51:10.239Z,8.70
2018-12-22T01:53:43.233Z,8.93
2018-12-22T01:56:16.080Z,9.23
2018-12-22T01:58:49.504Z,9.10
2018-12-22T02:01:22.420Z,9.03
2018-12-22T02:03:56.323Z,9.20
2018-12-22T02:06:30.830Z,8.77
2018-12-22T02:09:06.901Z,9.47
2018-12-22T02:11:42.985Z,9.07
2018-12-22T02:14:16.704Z,8.53
2018-12-22T02:16:50.214Z,8.93
2018-12-22T02:19:23.213Z,8.10
2018-12-22T02:21:57.630Z,7.90
2018-12-22T02:24:30.558Z,8.97
2018-12-22T02:27:03.415Z,7.67
2018-12-22T02:29:36.836Z,7.43
2018-12-22T02:32:09.952Z,7.87
2018-12-22T02:34:42.974Z,7.70
2018-12-22T02:37:16.339Z,7.87
2018-12-22T02:39:49.299Z,7.90
2018-12-22T02:42:22.055Z,8.20
2018-12-22T02:44:55.497Z,6.93
2018-12-22T02:47:28.490Z,7.43
2018-12-22T02:50:01.501Z,6.87
2018-12-22T02:52:36.110Z,6.37
2018-12-22T02:55:09.136Z,7.40
2018-12-22T02:57:42.034Z,7.43
2018-12-22T03:00:19.196Z,6.70
2018-12-22T03:02:52.155Z,7.13
2018-12-22T03:05:25.458Z,7.27
2018-12-22T03:07:59.479Z,6.80
2018-12-22T03:10:32.429Z,6.30
2018-12-22T03:13:05.346Z,6.13
2018-12-22T03:15:39.799Z,5.83
2018-12-22T03:18:13.626Z,6.40
2018-12-22T03:20:46.704Z,5.30
2018-12-22T03:23:21.988Z,6.20
2018-12-22T03:25:55.278Z,6.03
2018-12-22T03:28:28.580Z,5.57
2018-12-22T03:31:02.157Z,7.03
2018-12-22T03:33:35.313Z,6.30
2018-12-22T03:36:08.225Z,6.00
2018-12-22T03:38:42.751Z,6.90
2018-12-22T03:41:15.661Z,6.10
2018-12-22T03:43:48.700Z,6.20
2018-12-22T03:46:22.035Z,6.30
2018-12-22T03:48:54.437Z,5.90
2018-12-22T03:51:27.389Z,7.27
2018-12-22T03:54:00.875Z,5.50
2018-12-22T03:56:33.789Z,6.17
2018-12-22T03:59:07.079Z,5.90
2018-12-22T04:01:41.387Z,6.00
2018-12-22T04:04:15.069Z,5.17
2018-12-22T04:06:48.263Z,5.40
2018-12-22T04:09:23.024Z,6.18
2018-12-22T04:11:55.973Z,4.23
2018-12-22T04:14:28.804Z,3.97
2018-12-22T04:17:02.156Z,4.40
2018-12-22T04:19:34.995Z,3.80
2018-12-22T04:22:07.916Z,4.47
2018-12-22T04:24:41.328Z,3.67
2018-12-22T04:27:14.346Z,4.47
2018-12-22T04:29:47.350Z,4.43
2018-12-22T04:32:21.132Z,4.17
2018-12-22T04:34:53.890Z,3.80
2018-12-22T04:37:26.683Z,3.43
2018-12-22T04:40:00.284Z,3.60
2018-12-22T04:42:33.330Z,3.10
2018-12-22T04:45:07.569Z,3.53
2018-12-22T04:47:41.315Z,3.37
2018-12-22T04:50:15.201Z,4.03
2018-12-22T04:52:48.182Z,3.23
2018-12-22T04:55:21.638Z,3.27
2018-12-22T04:57:54.826Z,3.37
2018-12-22T05:00:27.740Z,2.73
2018-12-22T05:03:01.069Z,2.40
2018-12-22T05:05:34.178Z,2.63
2018-12-22T05:08:07.074Z,2.50
2018-12-22T05:10:41.806Z,2.33
2018-12-22T05:13:14.981Z,2.37
2018-12-22T05:15:47.992Z,2.53
2018-12-22T05:18:21.497Z,2.03
2018-12-22T05:20:54.518Z,2.10
2018-12-22T05:23:27.751Z,2.77
2018-12-22T05:26:02.340Z,2.60
2018-12-22T05:28:35.287Z,2.78
2018-12-22T05:31:08.312Z,3.00
2018-12-22T05:33:42.904Z,2.87
2018-12-22T05:36:16.514Z,2.53
2018-12-22T05:38:50.448Z,2.93
2018-12-22T05:41:24.041Z,3.40
2018-12-22T05:43:57.124Z,3.67
2018-12-22T05:46:30.398Z,3.43
2018-12-22T05:49:03.962Z,3.80
2018-12-22T05:51:38.708Z,3.43
2018-12-22T05:54:11.738Z,3.57
2018-12-22T05:56:45.280Z,3.47
2018-12-22T05:59:18.321Z,3.10
2018-12-22T06:01:51.315Z,3.58
2018-12-22T06:04:24.880Z,4.00
2018-12-22T06:06:57.910Z,3.27
2018-12-22T06:09:36.700Z,3.77
2018-12-22T06:12:13.120Z,3.17
2018-12-22T06:14:45.987Z,2.83
2018-12-22T06:17:19.458Z,2.10
2018-12-22T06:19:52.726Z,1.93
2018-12-22T06:22:25.737Z,1.60
2018-12-22T06:24:58.818Z,1.50
2018-12-22T06:27:32.687Z,1.60
2018-12-22T06:30:09.360Z,1.52
2018-12-22T06:32:46.348Z,1.10
2018-12-22T06:35:19.418Z,1.10
2018-12-22T06:37:53.571Z,0.90
2018-12-22T06:40:27.663Z,0.90
2018-12-22T06:43:00.552Z,1.00
2018-12-22T06:45:35.232Z,1.00
2018-12-22T06:48:09.343Z,0.90
2018-12-22T06:50:42.226Z,0.67
2018-12-22T06:53:15.558Z,0.60
2018-12-22T06:55:49.358Z,0.70
2018-12-22T06:58:26.657Z,1.10
2018-12-22T07:00:59.856Z,1.00
2018-12-22T07:03:33.737Z,1.10
2018-12-22T07:06:06.943Z,0.70
2018-12-22T07:08:44.131Z,0.90
2018-12-22T07:11:18.345Z,0.87
2018-12-22T07:13:53.128Z,1.40
2018-12-22T07:16:26.595Z,1.00
2018-12-22T07:19:00.410Z,0.80
2018-12-22T07:21:34.462Z,1.00
2018-12-22T07:24:13.137Z,0.97
2018-12-22T07:26:58.572Z,1.07
2018-12-22T07:29:36.088Z,1.00
2018-12-22T07:32:09.358Z,1.10
2018-12-22T07:34:42.326Z,1.00
2018-12-22T07:37:15.251Z,0.93
2018-12-22T07:39:48.683Z,0.83
2018-12-22T07:42:21.745Z,1.20
2018-12-22T07:44:55.488Z,1.50
2018-12-22T07:47:30.275Z,1.30
2018-12-22T07:50:04.733Z,0.73
2018-12-22T07:52:39.410Z,1.13
2018-12-22T07:55:12.875Z,1.30
2018-12-22T07:57:47.424Z,1.80
2018-12-22T08:00:21.301Z,1.53
2018-12-22T08:02:55.942Z,1.73
2018-12-22T08:05:38.449Z,1.90
2018-12-22T08:08:13.068Z,2.10
2018-12-22T08:10:48.473Z,2.30
2018-12-22T08:13:21.435Z,2.00
2018-12-22T08:15:54.488Z,2.33
2018-12-22T08:18:27.839Z,2.77
2018-12-22T08:21:02.316Z,2.83
2018-12-22T08:23:36.862Z,3.43
2018-12-22T08:26:11.324Z,2.80
2018-12-22T08:28:44.291Z,3.08
2018-12-22T08:31:18.494Z,2.47
2018-12-22T08:33:54.205Z,3.13
2018-12-22T08:36:27.721Z,2.93
2018-12-22T08:39:02.355Z,2.50
2018-12-22T08:41:36.053Z,2.33
2018-12-22T08:44:09.148Z,2.97
2018-12-22T08:46:42.196Z,2.60
2018-12-22T08:49:15.870Z,2.40
2018-12-22T08:51:50.044Z,2.10
2018-12-22T08:54:25.702Z,2.13
2018-12-22T08:57:00.569Z,2.40
2018-12-22T08:59:34.320Z,1.97
2018-12-22T09:02:10.620Z,2.13
2018-12-22T09:04:46.763Z,2.12
2018-12-22T09:07:21.640Z,2.10
2018-12-22T09:09:59.964Z,2.17
2018-12-22T09:12:34.625Z,2.23
2018-12-22T09:15:10.753Z,1.70
2018-12-22T09:17:45.359Z,1.63
2018-12-22T09:20:20.337Z,2.00
2018-12-22T09:22:55.414Z,2.13
2018-12-22T09:25:28.322Z,1.50
2018-12-22T09:28:06.982Z,1.80
2018-12-22T09:30:41.002Z,2.13
2018-12-22T09:33:14.256Z,1.63
2018-12-22T09:35:47.751Z,1.90
2018-12-22T09:38:20.726Z,1.63
2018-12-22T09:40:53.896Z,1.70
2018-12-22T09:43:27.730Z,1.80
2018-12-22T09:46:05.971Z,2.17
2018-12-22T09:48:42.561Z,1.80
2018-12-22T09:51:21.382Z,2.20
2018-12-22T09:54:02.747Z,2.33
2018-12-22T09:56:39.746Z,2.13
2018-12-22T09:59:14.237Z,2.07
2018-12-22T10:01:47.245Z,2.20
2018-12-22T10:04:20.713Z,2.00
2018-12-22T10:06:56.921Z,2.67
2018-12-22T10:09:29.720Z,2.40
2018-12-22T10:12:04.857Z,2.17
2018-12-22T10:14:38.066Z,1.87
2018-12-22T10:17:11.249Z,2.20
2018-12-22T10:19:45.400Z,2.97
2018-12-22T10:22:18.416Z,2.27
2018-12-22T10:24:52.936Z,2.00
2018-12-22T10:27:31.488Z,1.77
2018-12-22T10:30:09.336Z,2.00
2018-12-22T10:32:46.536Z,2.40
2018-12-22T10:35:31.283Z,2.10
2018-12-22T10:38:05.345Z,2.13
2018-12-22T10:40:39.391Z,2.53
2018-12-22T10:43:14.066Z,2.20
2018-12-22T10:45:47.066Z,2.30
2018-12-22T10:48:20.017Z,2.30
2018-12-22T10:50:53.809Z,2.20
2018-12-22T10:53:28.910Z,2.50
2018-12-22T10:56:04.502Z,2.97
2018-12-22T10:58:37.586Z,2.53
2018-12-22T11:01:10.739Z,2.97
2018-12-22T11:03:43.924Z,3.40
2018-12-22T11:06:16.920Z,2.90
2018-12-22T11:08:50.375Z,2.57
2018-12-22T11:11:24.326Z,2.70
2018-12-22T11:13:58.060Z,2.40
2018-12-22T11:16:34.261Z,2.50
2018-12-22T11:19:08.611Z,2.70
2018-12-22T11:21:44.526Z,2.43
2018-12-22T11:24:18.876Z,2.60
2018-12-22T11:26:52.364Z,2.70
2018-12-22T11:29:26.702Z,2.93
2018-12-22T11:31:59.718Z,2.90
2018-12-22T11:34:32.790Z,3.27
2018-12-22T11:37:08.207Z,3.80
2018-12-22T11:39:41.152Z,2.83
2018-12-22T11:42:15.272Z,3.20
2018-12-22T11:44:48.757Z,2.97
2018-12-22T11:47:37.464Z,3.40
2018-12-22T11:50:21.851Z,3.47
2018-12-22T11:52:55.020Z,3.20
2018-12-22T11:55:29.236Z,4.03
2018-12-22T11:58:05.484Z,3.33
2018-12-22T12:00:42.114Z,3.53
2018-12-22T12:03:16.024Z,4.07
2018-12-22T12:05:52.759Z,4.37
2018-12-22T12:08:25.821Z,4.13
2018-12-22T12:11:00.501Z,5.23
2018-12-22T12:13:34.704Z,4.60
2018-12-22T12:16:30.469Z,4.70
2018-12-22T12:19:22.228Z,5.20
2018-12-22T12:21:56.023Z,4.57
2018-12-22T12:24:29.566Z,5.13
2018-12-22T12:27:05.245Z,5.30
2018-12-22T12:29:39.201Z,4.97
2018-12-22T12:32:12.189Z,4.83
2018-12-22T12:34:45.157Z,4.43
2018-12-22T12:37:20.389Z,5.43
2018-12-22T12:39:53.617Z,4.90
2018-12-22T12:42:27.421Z,4.50
2018-12-22T12:45:01.115Z,4.17
2018-12-22T12:47:37.994Z,4.30
2018-12-22T12:50:15.920Z,4.10
2018-12-22T12:52:50.617Z,4.30
2018-12-22T12:55:25.836Z,4.40
2018-12-22T12:57:59.958Z,4.80
2018-12-22T13:00:32.863Z,4.47
2018-12-22T13:03:08.383Z,4.67
2018-12-22T13:05:43.013Z,4.13
2018-12-22T13:08:27.318Z,3.60
2018-12-22T13:11:01.604Z,4.40
2018-12-22T13:13:49.538Z,4.47
2018-12-22T13:16:27.372Z,3.77
2018-12-22T13:19:00.463Z,3.53
2018-12-22T13:21:39.856Z,4.57
2018-12-22T13:24:13.749Z,3.83
2018-12-22T13:26:46.793Z,4.45
2018-12-22T13:29:21.225Z,3.90
2018-12-22T13:31:54.429Z,4.43
2018-12-22T13:34:27.598Z,4.67
2018-12-22T13:37:00.827Z,5.10
2018-12-22T13:39:34.675Z,4.50
2018-12-22T13:42:12.091Z,3.77
2018-12-22T13:44:47.501Z,4.20
2018-12-22T13:47:21.185Z,3.80
2018-12-22T13:49:55.778Z,3.87
2018-12-22T13:52:28.988Z,4.33
2018-12-22T13:55:02.115Z,3.60
2018-12-22T13:57:35.789Z,3.43
2018-12-22T14:00:15.594Z,4.13
2018-12-22T14:02:48.766Z,3.63
2018-12-22T14:05:23.973Z,2.83
2018-12-22T14:07:57.162Z,3.27
2018-12-22T14:10:37.511Z,3.37
2018-12-22T14:13:19.903Z,2.40
2018-12-22T14:16:10.510Z,1.97
2018-12-22T14:19:07.745Z,1.43
2018-12-22T14:21:41.801Z,1.20
2018-12-22T14:24:45.718Z,1.70
2018-12-22T14:27:19.597Z,1.20
2018-12-22T14:29:53.244Z,1.37
2018-12-22T14:32:27.079Z,1.00
2018-12-22T14:35:52.477Z,1.37
2018-12-22T14:38:26.854Z,1.43
2018-12-22T14:41:02.598Z,2.20
2018-12-22T14:43:36.951Z,2.10
2018-12-22T14:46:10.157Z,1.57
2018-12-22T14:48:44.471Z,1.77
2018-12-22T14:51:18.822Z,1.67
2018-12-22T14:53:51.895Z,1.60
2018-12-22T14:56:40.886Z,1.50
2018-12-22T14:59:18.461Z,1.50
2018-12-22T15:01:59.067Z,1.80
2018-12-22T15:04:33.968Z,1.77
2018-12-22T15:07:08.938Z,1.60
2018-12-22T15:09:43.995Z,2.30
2018-12-22T15:12:17.769Z,2.50
2018-12-22T15:14:52.861Z,2.27
2018-12-22T15:17:25.820Z,3.10
2018-12-22T15:19:58.781Z,2.80
2018-12-22T15:22:31.868Z,2.90
2018-12-22T15:25:06.658Z,3.60
2018-12-22T15:27:39.646Z,3.90
2018-12-22T15:30:18.835Z,5.20
2018-12-22T15:32:54.769Z,5.00
2018-12-22T15:35:28.689Z,5.33
2018-12-22T15:38:05.340Z,5.82
2018-12-22T15:40:39.772Z,5.87
2018-12-22T15:43:13.873Z,6.00
2018-12-22T15:45:47.609Z,6.10
2018-12-22T15:48:21.053Z,4.70
2018-12-22T15:50:54.320Z,4.57
2018-12-22T15:53:27.569Z,5.17
2018-12-22T15:56:01.321Z,4.95
2018-12-22T15:58:35.632Z,4.67
2018-12-22T16:01:09.231Z,4.37
2018-12-22T16:03:42.703Z,3.63
2018-12-22T16:06:16.393Z,4.30
2018-12-22T16:08:55.005Z,4.27
2018-12-22T16:11:29.445Z,3.77
2018-12-22T16:14:03.699Z,3.10
2018-12-22T16:16:38.596Z,3.10
2018-12-22T16:19:13.370Z,2.87
2018-12-22T16:21:46.437Z,3.07
2018-12-22T16:24:19.333Z,3.47
2018-12-22T16:26:54.718Z,3.03
2018-12-22T16:29:41.397Z,3.47
2018-12-22T16:32:23.633Z,3.45
2018-12-22T16:34:57.809Z,3.70
2018-12-22T16:37:31.823Z,2.90
2018-12-22T16:40:07.814Z,3.33
2018-12-22T16:42:41.850Z,2.80
2018-12-22T16:45:17.010Z,3.30
2018-12-22T16:47:54.416Z,3.07
2018-12-22T16:50:30.197Z,3.43
2018-12-22T16:53:05.689Z,2.70
2018-12-22T16:55:38.598Z,3.10
2018-12-22T16:58:36.650Z,3.10
2018-12-22T17:02:01.214Z,3.43
2018-12-22T17:04:35.605Z,3.20
2018-12-22T17:07:10.396Z,3.37
2018-12-22T17:09:45.856Z,3.40
2018-12-22T17:12:19.836Z,3.83
2018-12-22T17:14:55.923Z,4.00
2018-12-22T17:17:30.154Z,4.20
2018-12-22T17:20:04.874Z,3.33
2018-12-22T17:23:27.525Z,4.00
2018-12-22T17:26:07.934Z,3.17
2018-12-22T17:28:40.971Z,3.73
2018-12-22T17:31:17.471Z,3.10
2018-12-22T17:33:50.828Z,3.40
2018-12-22T17:36:26.106Z,3.73
2018-12-22T17:39:02.460Z,3.90
2018-12-22T17:41:35.546Z,3.10
2018-12-22T17:44:08.724Z,3.10
2018-12-22T17:46:44.140Z,3.07
2018-12-22T17:49:20.082Z,3.40
2018-12-22T17:51:54.154Z,3.83
2018-12-22T17:54:29.691Z,3.47
2018-12-22T17:57:04.390Z,4.17
2018-12-22T17:59:38.123Z,3.90
2018-12-22T18:02:12.113Z,3.27
2018-12-22T18:04:53.747Z,3.60
2018-12-22T18:07:39.334Z,3.90
2018-12-22T18:10:13.056Z,3.87
2018-12-22T18:12:46.624Z,4.50
2018-12-22T18:15:23.677Z,4.72
2018-12-22T18:17:58.800Z,4.23
2018-12-22T18:20:32.253Z,4.40
2018-12-22T18:23:05.927Z,3.83
2018-12-22T18:25:38.883Z,4.57
2018-12-22T18:28:12.065Z,4.10
2018-12-22T18:30:54.705Z,4.37
2018-12-22T18:33:35.947Z,3.80
2018-12-22T18:36:09.348Z,4.87
2018-12-22T18:38:43.761Z,4.23
2018-12-22T18:41:23.214Z,4.47
2018-12-22T18:43:57.340Z,4.53
2018-12-22T18:46:33.355Z,4.30
2018-12-22T18:49:07.670Z,4.43
2018-12-22T18:51:40.976Z,4.47
2018-12-22T18:54:14.789Z,4.50
2018-12-22T18:57:01.241Z,4.67
2018-12-22T18:59:37.523Z,5.13
2018-12-22T19:02:15.438Z,5.30
2018-12-22T19:04:48.624Z,5.03
2018-12-22T19:07:24.512Z,5.23
2018-12-22T19:09:59.876Z,4.63
2018-12-22T19:12:34.767Z,4.57
2018-12-22T19:15:10.459Z,4.67
2018-12-22T19:17:45.376Z,4.63
2018-12-22T19:20:34.306Z,5.70
2018-12-22T19:23:09.311Z,5.43
2018-12-22T19:25:48.028Z,4.77
2018-12-22T19:28:22.255Z,5.75
2018-12-22T19:30:59.904Z,4.73
2018-12-22T19:33:40.171Z,5.27
2018-12-22T19:36:15.400Z,3.97
2018-12-22T19:38:50.325Z,5.10
2018-12-22T19:41:25.783Z,3.90
2018-12-22T19:44:00.360Z,5.57
2018-12-22T19:46:34.140Z,4.43
2018-12-22T19:49:08.913Z,5.63
2018-12-22T19:51:43.567Z,4.70
2018-12-22T19:54:17.956Z,5.13
2018-12-22T19:56:54.146Z,4.93
2018-12-22T19:59:28.009Z,6.07
2018-12-22T20:02:08.521Z,4.90
2018-12-22T20:04:42.543Z,5.40
2018-12-22T20:07:18.692Z,4.67
2018-12-22T20:09:53.852Z,5.68
2018-12-22T20:12:29.593Z,4.90
2018-12-22T20:15:05.159Z,4.60
2018-12-22T20:17:40.397Z,4.57
2018-12-22T20:20:14.435Z,5.05
2018-12-22T20:22:47.668Z,4.63
2018-12-22T20:25:22.500Z,5.00
2018-12-22T20:27:57.203Z,4.40
2018-12-22T20:30:33.550Z,4.83
2018-12-22T20:33:07.967Z,5.23
2018-12-22T20:35:42.042Z,5.10
2018-12-22T20:38:15.634Z,5.30
2018-12-22T20:40:49.436Z,6.23
2018-12-22T20:43:24.852Z,5.53
2018-12-22T20:45:59.273Z,5.57
2018-12-22T20:48:34.744Z,5.00
2018-12-22T20:51:12.361Z,5.10
2018-12-22T20:53:46.288Z,4.83
2018-12-22T20:56:21.484Z,4.77
2018-12-22T20:58:58.470Z,5.67
2018-12-22T21:01:36.177Z,5.37
2018-12-22T21:04:09.791Z,5.37
2018-12-22T21:06:43.958Z,5.83
2018-12-22T21:09:21.676Z,4.93
2018-12-22T21:11:59.694Z,5.95
2018-12-22T21:14:44.492Z,5.83
2018-12-22T21:17:19.603Z,6.23
2018-12-22T21:19:57.955Z,6.30
2018-12-22T21:22:36.212Z,6.70
2018-12-22T21:25:09.235Z,5.80
2018-12-22T21:27:49.001Z,7.10
2018-12-22T21:30:27.564Z,6.10
2018-12-22T21:33:03.077Z,6.47
2018-12-22T21:35:36.791Z,6.03
2018-12-22T21:38:13.540Z,5.73
2018-12-22T21:40:50.122Z,6.83
2018-12-22T21:43:25.410Z,6.00
2018-12-22T21:46:01.463Z,5.73
2018-12-22T21:48:42.303Z,5.93
2018-12-22T21:51:19.132Z,6.10
2018-12-22T21:53:58.864Z,6.70
2018-12-22T21:56:37.877Z,6.30
2018-12-22T21:59:16.279Z,6.00
2018-12-22T22:01:51.816Z,5.30
2018-12-22T22:04:26.111Z,6.30
2018-12-22T22:07:06.406Z,5.97
2018-12-22T22:09:42.777Z,6.53
2018-12-22T22:12:20.842Z,6.60
2018-12-22T22:14:59.692Z,5.73
2018-12-22T22:17:37.927Z,5.67
2018-12-22T22:20:25.336Z,5.80
2018-12-22T22:23:00.838Z,5.90
2018-12-22T22:25:35.683Z,5.70
2018-12-22T22:28:09.523Z,5.73
2018-12-22T22:30:42.454Z,6.37
2018-12-22T22:33:16.452Z,6.68
2018-12-22T22:35:49.534Z,7.00
2018-12-22T22:38:23.578Z,6.53
2018-12-22T22:40:59.962Z,5.63
2018-12-22T22:43:34.277Z,5.80
2018-12-22T22:46:07.500Z,6.03
2018-12-22T22:48:44.083Z,6.07
2018-12-22T22:51:19.904Z,6.13
2018-12-22T22:53:53.932Z,6.50
2018-12-22T22:56:28.509Z,5.90
2018-12-22T22:59:02.439Z,6.47
2018-12-22T23:01:35.417Z,6.70
2018-12-22T23:04:09.086Z,6.53
2018-12-22T23:06:42.923Z,5.77
2018-12-22T23:09:19.357Z,6.43
2018-12-22T23:11:57.099Z,6.63
2018-12-22T23:14:30.181Z,6.60
2018-12-22T23:17:04.610Z,6.82
2018-12-22T23:19:39.106Z,6.27
2018-12-22T23:22:14.050Z,6.80
2018-12-22T23:24:48.644Z,5.80
2018-12-22T23:27:21.771Z,6.93
2018-12-22T23:29:56.601Z,7.27
2018-12-22T23:32:30.195Z,6.40
2018-12-22T23:35:04.964Z,5.60
2018-12-22T23:37:38.165Z,6.80
2018-12-22T23:40:12.193Z,6.13
2018-12-22T23:42:45.129Z,5.77
2018-12-22T23:45:18.214Z,6.45
2018-12-22T23:47:52.406Z,6.70
2018-12-22T23:50:25.359Z,6.20
2018-12-22T23:52:58.263Z,5.77
2018-12-22T23:55:31.728Z,6.13
2018-12-22T23:58:06.428Z,6.20
